Time;durP1;ratioP1;P1;durP2;ratioP2;P2;SDS_P1;SDS_P2;PMS_P1;PMS_P2;Temp;Humidity;BMP_temperature;BMP_pressure;BME280_temperature;BME280_humidity;BME280_pressure;Samples;Min_cycle;Max_cycle;Signal;HPM_P1;HPM_P2
2022/09/03 00:59:00;;;;;;;2.40;2.20;;;;;;;;;;6216974;22;20402;-90
2022/09/03 01:02:27;;;;;;;;;;;;;;;;;;;;;
2022/09/03 01:05:17;;;;;;;2.60;2.40;;;;;;;;;;6258517;23;20370;-91
2022/09/03 01:11:12;;;;;;;2.10;2.00;;;;;;;;;;6210048;23;20446;-90
2022/09/03 01:14:22;;;;;;;1.95;1.95;;;;;;;;;;6229728;23;20370;-91
2022/09/03 01:47:40;;;;;;;;;;;;;;;;;;;;;
2022/09/03 02:36:20;;;;;;;1.80;1.80;;;;;;;;;;6262827;23;20398;-90
2022/09/03 02:39:05;;;;;;;;;;;;;;;;;;;;;
2022/09/03 02:41:36;;;;;;;1.60;1.60;;;;;;;;;;6256092;23;20369;-90
2022/09/03 03:55:06;;;;;;;;;;;;;;;;;;;;;
2022/09/03 04:01:04;;;;;;;2.10;2.10;;;;;;;;;;6248205;23;20420;-91
2022/09/03 04:03:39;;;;;;;2.47;2.28;;;;;;;;;;6221570;23;20350;-89
2022/09/03 04:19:05;;;;;;;2.40;2.40;;;;;;;;;;6249513;23;20370;-89
2022/09/03 04:25:23;;;;;;;;;;;;;;;;;;;;;
2022/09/03 04:36:52;;;;;;;4.50;2.20;;;;;;;;;;6248611;23;20393;-90
2022/09/03 04:42:32;;;;;;;2.30;2.03;;;;;;;;;;6217766;23;20370;-89
2022/09/03 05:08:03;;;;;;;2.00;2.00;;;;;;;;;;6282803;22;20367;-90
2022/09/03 05:26:33;;;;;;;2.20;2.20;;;;;;;;;;6255381;22;20410;-86
2022/09/03 05:32:37;;;;;;;1.90;1.90;;;;;;;;;;6289955;22;20378;-90
2022/09/03 05:39:52;;;;;;;2.35;2.25;;;;;;;;;;6286118;22;20357;-90
2022/09/03 05:42:15;;;;;;;;;;;;;;;;;;;;;
2022/09/03 05:50:54;;;;;;;2.20;2.20;;;;;;;;;;6259992;22;20468;-90
2022/09/03 05:53:32;;;;;;;2.50;2.40;;;;;;;;;;6255732;22;20375;-91
2022/09/03 06:10:05;;;;;;;2.70;2.50;;;;;;;;;;6309592;22;20382;-91
2022/09/03 06:18:15;;;;;;;3.10;2.50;;;;;;;;;;6298062;22;20426;-94
2022/09/03 07:44:43;;;;;;;1.60;1.60;;;;;;;;;;6284370;22;20391;-94
2022/09/03 07:47:13;;;;;;;1.50;1.40;;;;;;;;;;6270584;22;20387;-91
2022/09/03 07:49:40;;;;;;;2.55;1.70;;;;;;;;;;6247391;22;20412;-92
2022/09/03 08:13:19;;;;;;;2.13;1.90;;;;;;;;;;6260151;22;20453;-92
2022/09/03 08:15:58;;;;;;;1.20;1.20;;;;;;;;;;6228929;23;20451;-92
2022/09/03 08:21:00;;;;;;;1.83;1.83;;;;;;;;;;6247407;22;20460;-88
2022/09/03 08:23:26;;;;;;;1.50;1.40;;;;;;;;;;6251403;23;20401;-93
2022/09/03 08:26:02;;;;;;;1.40;1.40;;;;;;;;;;6245677;23;20524;-90
2022/09/03 08:28:28;;;;;;;1.43;1.43;;;;;;;;;;6244826;23;20397;-91
2022/09/03 08:30:55;;;;;;;1.67;1.67;;;;;;;;;;6244877;23;20459;-89
2022/09/03 08:33:36;;;;;;;1.50;1.50;;;;;;;;;;6246231;23;20400;-91
2022/09/03 08:36:04;;;;;;;2.03;1.70;;;;;;;;;;6217154;23;20412;-91
2022/09/03 08:38:31;;;;;;;1.43;1.43;;;;;;;;;;6244686;23;20447;-92
2022/09/03 08:41:09;;;;;;;1.53;1.47;;;;;;;;;;6243118;23;20419;-91
2022/09/03 08:43:41;;;;;;;1.63;1.63;;;;;;;;;;6240395;23;20397;-92
2022/09/03 08:46:08;;;;;;;1.77;1.67;;;;;;;;;;6245445;23;20890;-91
2022/09/03 08:48:34;;;;;;;1.47;1.47;;;;;;;;;;6257730;22;20432;-92
2022/09/03 08:51:04;;;;;;;1.60;1.60;;;;;;;;;;6279212;22;20693;-92
2022/09/03 08:53:48;;;;;;;1.77;1.77;;;;;;;;;;6273448;22;20744;-92
2022/09/03 08:56:20;;;;;;;1.70;1.70;;;;;;;;;;6278023;22;20401;-91
2022/09/03 08:58:47;;;;;;;2.87;1.60;;;;;;;;;;6287600;22;20369;-89
2022/09/03 09:01:19;;;;;;;1.47;1.47;;;;;;;;;;6274397;22;20393;-90
2022/09/03 09:03:48;;;;;;;3.43;2.10;;;;;;;;;;6283763;22;20405;-93
2022/09/03 09:06:15;;;;;;;1.40;1.40;;;;;;;;;;6282288;22;20695;-91
2022/09/03 09:08:44;;;;;;;4.60;1.70;;;;;;;;;;6287572;22;20361;-93
2022/09/03 09:11:10;;;;;;;1.67;1.67;;;;;;;;;;6279835;22;20396;-90
2022/09/03 09:13:42;;;;;;;1.30;1.30;;;;;;;;;;6275671;22;20945;-91
2022/09/03 09:16:09;;;;;;;1.50;1.50;;;;;;;;;;6273492;22;20456;-90
2022/09/03 09:18:53;;;;;;;1.60;1.60;;;;;;;;;;6275875;22;20388;-91
2022/09/03 09:21:23;;;;;;;1.50;1.50;;;;;;;;;;6274343;22;20446;-92
2022/09/03 09:23:57;;;;;;;2.10;1.90;;;;;;;;;;6288285;22;20383;-95
2022/09/03 09:26:23;;;;;;;1.67;1.67;;;;;;;;;;6282096;22;20383;-90
2022/09/03 09:29:09;;;;;;;1.70;1.70;;;;;;;;;;6289420;22;20461;-92
2022/09/03 09:31:37;;;;;;;1.47;1.47;;;;;;;;;;6284345;22;20383;-90
2022/09/03 09:34:14;;;;;;;2.97;1.77;;;;;;;;;;6284659;22;20420;-91
2022/09/03 09:36:56;;;;;;;2.00;1.90;;;;;;;;;;6282646;22;20403;-93
2022/09/03 09:42:17;;;;;;;1.80;1.77;;;;;;;;;;6307295;22;20486;-90
2022/09/03 09:44:43;;;;;;;2.87;2.00;;;;;;;;;;6282901;22;20388;-90
2022/09/03 09:47:28;;;;;;;1.97;1.97;;;;;;;;;;6277074;22;20448;-92
2022/09/03 09:49:55;;;;;;;1.73;1.73;;;;;;;;;;6278897;22;20491;-91
2022/09/03 09:52:24;;;;;;;1.80;1.80;;;;;;;;;;6277445;22;20399;-90
2022/09/03 09:54:54;;;;;;;2.10;2.10;;;;;;;;;;6281543;22;20447;-91
2022/09/03 09:57:27;;;;;;;2.10;2.10;;;;;;;;;;6279475;22;20859;-90
2022/09/03 10:02:31;;;;;;;1.90;1.80;;;;;;;;;;6278323;22;20463;-91
2022/09/03 10:05:27;;;;;;;3.10;1.73;;;;;;;;;;6258360;22;20439;-91
2022/09/03 10:08:25;;;;;;;1.83;1.77;;;;;;;;;;6239613;22;20409;-91
2022/09/03 10:11:08;;;;;;;2.30;2.30;;;;;;;;;;6186706;22;20388;-93
2022/09/03 10:16:49;;;;;;;1.53;1.53;;;;;;;;;;6283909;22;20458;-92
2022/09/03 10:19:20;;;;;;;1.80;1.80;;;;;;;;;;6203361;23;20442;-90
2022/09/03 10:22:18;;;;;;;1.93;1.93;;;;;;;;;;6206083;23;20410;-94
2022/09/03 10:24:58;;;;;;;3.30;1.70;;;;;;;;;;6185513;23;20415;-90
2022/09/03 10:27:24;;;;;;;1.53;1.53;;;;;;;;;;6261297;22;20444;-91
2022/09/03 10:29:51;;;;;;;1.67;1.67;;;;;;;;;;6295731;22;20436;-90
2022/09/03 10:32:21;;;;;;;2.80;1.83;;;;;;;;;;6290385;22;20443;-93
2022/09/03 10:34:57;;;;;;;1.87;1.80;;;;;;;;;;6286648;22;20431;-93
2022/09/03 10:37:33;;;;;;;2.73;2.10;;;;;;;;;;6286565;22;20491;-95
2022/09/03 10:40:27;;;;;;;2.07;1.97;;;;;;;;;;6313839;22;20375;-89
2022/09/03 10:45:45;;;;;;;1.60;1.60;;;;;;;;;;6295823;22;20518;-93
2022/09/03 10:48:11;;;;;;;3.83;1.83;;;;;;;;;;6283050;22;20460;-89
2022/09/03 10:50:44;;;;;;;2.00;1.90;;;;;;;;;;6279444;22;20396;-89
2022/09/03 10:53:21;;;;;;;2.23;2.13;;;;;;;;;;6292079;22;20741;-96
2022/09/03 10:55:54;;;;;;;2.30;2.10;;;;;;;;;;6287583;22;20453;-94
2022/09/03 10:58:36;;;;;;;2.13;2.13;;;;;;;;;;6292155;22;20406;-95
2022/09/03 11:01:17;;;;;;;2.20;2.10;;;;;;;;;;6286030;22;20402;-91
2022/09/03 11:03:46;;;;;;;2.20;2.10;;;;;;;;;;6322026;22;20394;-96
2022/09/03 11:06:20;;;;;;;1.80;1.80;;;;;;;;;;6298038;22;20508;-94
2022/09/03 11:09:10;;;;;;;1.80;1.80;;;;;;;;;;6299768;22;20755;-89
2022/09/03 11:11:49;;;;;;;2.00;2.00;;;;;;;;;;6262034;22;20391;-92
2022/09/03 11:14:53;;;;;;;2.07;2.00;;;;;;;;;;6318517;22;20525;-94
2022/09/03 11:17:23;;;;;;;1.90;1.90;;;;;;;;;;6169720;22;20392;-90
2022/09/03 11:20:07;;;;;;;3.60;2.30;;;;;;;;;;6318404;22;20348;-91
2022/09/03 11:22:34;;;;;;;2.13;2.13;;;;;;;;;;6289213;22;20443;-91
2022/09/03 11:25:06;;;;;;;1.80;1.80;;;;;;;;;;6289311;22;20383;-93
2022/09/03 11:27:41;;;;;;;1.73;1.73;;;;;;;;;;6285700;22;20396;-92
2022/09/03 11:30:08;;;;;;;4.53;2.43;;;;;;;;;;6289521;22;20383;-93
2022/09/03 11:32:45;;;;;;;1.80;1.70;;;;;;;;;;6290050;22;20479;-90
2022/09/03 11:38:26;;;;;;;2.73;2.20;;;;;;;;;;6247649;22;20457;-93
2022/09/03 11:43:31;;;;;;;2.00;2.00;;;;;;;;;;6287858;22;20463;-90
2022/09/03 11:48:49;;;;;;;3.97;1.90;;;;;;;;;;6307652;22;20435;-92
2022/09/03 11:51:36;;;;;;;3.00;2.77;;;;;;;;;;6298297;22;20391;-91
2022/09/03 11:54:29;;;;;;;2.40;2.20;;;;;;;;;;6295728;22;20419;-93
2022/09/03 11:57:18;;;;;;;2.20;2.10;;;;;;;;;;6296067;22;20682;-92
2022/09/03 12:02:44;;;;;;;2.13;2.10;;;;;;;;;;6290708;22;20500;-92
2022/09/03 12:05:18;;;;;;;2.43;2.43;;;;;;;;;;6270223;22;20420;-92
2022/09/03 12:11:12;;;;;;;2.33;2.33;;;;;;;;;;6298799;22;20371;-91
2022/09/03 12:13:54;;;;;;;;;;;;;;;;;;;;;
2022/09/03 12:16:41;;;;;;;2.17;2.07;;;;;;;;;;6281086;22;20454;-88
2022/09/03 12:19:26;;;;;;;2.57;2.40;;;;;;;;;;6271039;22;20447;-89
2022/09/03 12:22:18;;;;;;;;;;;;;;;;;;;;;
2022/09/03 12:24:51;;;;;;;2.67;2.57;;;;;;;;;;6293086;22;20387;-90
2022/09/03 12:27:27;;;;;;;3.10;2.90;;;;;;;;;;6266983;22;20428;-90
2022/09/03 12:30:20;;;;;;;2.63;2.43;;;;;;;;;;6258112;22;20449;-93
2022/09/03 12:32:50;;;;;;;2.67;2.57;;;;;;;;;;6291644;22;20371;-92
2022/09/03 12:35:28;;;;;;;2.70;2.60;;;;;;;;;;6296023;22;20464;-91
2022/09/03 12:38:15;;;;;;;2.67;2.67;;;;;;;;;;6293259;22;20422;-90
2022/09/03 12:40:51;;;;;;;2.40;2.40;;;;;;;;;;6295227;22;20381;-89
2022/09/03 12:45:57;;;;;;;2.50;2.33;;;;;;;;;;6244572;22;20449;-89
2022/09/03 12:48:27;;;;;;;3.70;2.40;;;;;;;;;;6267843;22;20424;-91
2022/09/03 12:51:17;;;;;;;;;;;;;;;;;;;;;
2022/09/03 12:56:22;;;;;;;4.00;2.97;;;;;;;;;;6246957;22;20450;-93
2022/09/03 12:58:58;;;;;;;2.83;2.83;;;;;;;;;;6293430;22;20514;-90
2022/09/03 13:01:56;;;;;;;;;;;;;;;;;;;;;
2022/09/03 13:05:01;;;;;;;2.63;2.63;;;;;;;;;;6283196;22;20400;-92
2022/09/03 13:07:33;;;;;;;3.13;2.93;;;;;;;;;;6283736;22;20463;-91
2022/09/03 13:10:07;;;;;;;3.13;2.80;;;;;;;;;;6285148;22;20414;-88
2022/09/03 13:12:35;;;;;;;3.20;2.97;;;;;;;;;;6308732;22;20364;-89
2022/09/03 13:15:10;;;;;;;2.70;2.70;;;;;;;;;;6309456;22;20882;-90
2022/09/03 13:17:42;;;;;;;2.70;2.70;;;;;;;;;;6280046;22;20396;-91
2022/09/03 13:20:21;;;;;;;3.17;2.93;;;;;;;;;;6322304;22;20368;-89
2022/09/03 13:23:06;;;;;;;3.23;3.23;;;;;;;;;;6296829;22;20402;-92
2022/09/03 13:25:51;;;;;;;3.00;2.90;;;;;;;;;;6288482;22;20382;-92
2022/09/03 13:28:29;;;;;;;6.70;4.17;;;;;;;;;;6290165;22;20395;-94
2022/09/03 13:31:21;;;;;;;3.53;2.97;;;;;;;;;;6289678;22;20379;-91
2022/09/03 13:33:50;;;;;;;2.73;2.73;;;;;;;;;;6303159;22;20428;-88
2022/09/03 13:36:20;;;;;;;4.10;4.00;;;;;;;;;;6323463;22;20372;-92
2022/09/03 13:39:05;;;;;;;2.50;2.50;;;;;;;;;;6317317;22;20372;-91
2022/09/03 13:41:53;;;;;;;3.10;3.00;;;;;;;;;;6286251;22;20429;-93
2022/09/03 13:44:39;;;;;;;3.77;3.57;;;;;;;;;;6292227;22;20443;-91
2022/09/03 13:47:13;;;;;;;2.70;2.70;;;;;;;;;;6291605;22;20383;-91
2022/09/03 13:52:45;;;;;;;2.90;2.80;;;;;;;;;;6308303;22;20477;-93
2022/09/03 13:55:22;;;;;;;3.00;3.00;;;;;;;;;;6284558;22;20427;-93
2022/09/03 13:58:03;;;;;;;2.70;2.70;;;;;;;;;;6288151;22;20376;-92
2022/09/03 14:00:51;;;;;;;3.07;2.97;;;;;;;;;;6285264;22;20390;-89
2022/09/03 14:03:36;;;;;;;4.20;4.00;;;;;;;;;;6314156;22;20361;-93
2022/09/03 14:06:17;;;;;;;4.40;4.20;;;;;;;;;;6319246;22;20709;-93
2022/09/03 14:09:13;;;;;;;3.90;3.80;;;;;;;;;;6285411;22;20377;-93
2022/09/03 14:11:48;;;;;;;3.80;3.60;;;;;;;;;;6255342;22;20371;-87
2022/09/03 14:17:33;;;;;;;3.60;3.40;;;;;;;;;;6305980;22;20423;-89
2022/09/03 14:20:05;;;;;;;3.80;3.60;;;;;;;;;;6292830;22;20355;-91
2022/09/03 14:22:41;;;;;;;3.40;3.20;;;;;;;;;;6300749;22;20449;-92
2022/09/03 14:25:17;;;;;;;2.97;2.97;;;;;;;;;;6297627;22;20375;-94
2022/09/03 14:27:47;;;;;;;3.40;3.20;;;;;;;;;;6286826;22;20351;-91
2022/09/03 14:30:40;;;;;;;3.05;2.95;;;;;;;;;;6270172;22;20462;-93
2022/09/03 14:33:45;;;;;;;4.50;4.20;;;;;;;;;;6322788;22;20354;-91
2022/09/03 14:36:24;;;;;;;3.50;3.40;;;;;;;;;;6293943;22;20368;-92
2022/09/03 14:39:13;;;;;;;3.60;3.50;;;;;;;;;;6319822;22;20339;-88
2022/09/03 14:44:22;;;;;;;3.40;3.40;;;;;;;;;;6259486;22;20401;-90
2022/09/03 14:47:03;;;;;;;3.40;3.30;;;;;;;;;;6255619;23;20388;-92
2022/09/03 14:49:40;;;;;;;3.60;3.40;;;;;;;;;;6254439;22;20405;-92
2022/09/03 14:52:25;;;;;;;3.77;3.57;;;;;;;;;;6252305;23;20444;-92
2022/09/03 14:55:13;;;;;;;3.40;3.30;;;;;;;;;;6260113;23;20374;-86
2022/09/03 14:58:05;;;;;;;3.70;3.70;;;;;;;;;;6254923;23;20370;-92
2022/09/03 15:01:00;;;;;;;3.90;3.80;;;;;;;;;;6257501;23;20467;-89
2022/09/03 15:12:20;;;;;;;3.60;3.60;;;;;;;;;;6293817;22;20404;-90
2022/09/03 15:47:41;;;;;;;4.80;4.65;;;;;;;;;;6207201;23;20381;-90
2022/09/03 15:50:11;;;;;;;4.20;4.10;;;;;;;;;;6266295;22;20356;-89
2022/09/03 15:53:08;;;;;;;3.70;3.50;;;;;;;;;;6264199;22;20380;-94
2022/09/03 16:11:21;;;;;;;3.78;3.67;;;;;;;;;;6309442;22;20450;-88
2022/09/03 16:14:06;;;;;;;2.97;2.97;;;;;;;;;;6318029;22;20421;-93
2022/09/03 16:16:41;;;;;;;3.28;3.03;;;;;;;;;;6299373;22;20421;-92
2022/09/03 16:20:02;;;;;;;2.90;2.80;;;;;;;;;;6289271;22;20388;-94
2022/09/03 16:22:55;;;;;;;3.50;3.40;;;;;;;;;;6147229;23;20926;-92
2022/09/03 16:25:51;;;;;;;;;;;;;;;;;;;;;
2022/09/03 16:28:30;;;;;;;2.72;2.63;;;;;;;;;;6164938;23;20367;-92
2022/09/03 16:34:16;;;;;;;;;;;;;;;;;;;;;
2022/09/03 16:36:58;;;;;;;3.30;3.20;;;;;;;;;;6283993;22;20356;-91
2022/09/03 16:39:40;;;;;;;2.67;2.67;;;;;;;;;;6254403;22;20421;-94
2022/09/03 16:42:10;;;;;;;3.47;3.28;;;;;;;;;;6266369;22;20359;-92
2022/09/03 16:47:44;;;;;;;3.22;3.03;;;;;;;;;;6286805;22;20355;-90
2022/09/03 16:50:26;;;;;;;4.00;3.80;;;;;;;;;;6261075;23;20358;-93
2022/09/03 16:53:05;;;;;;;2.78;2.78;;;;;;;;;;6230895;23;20389;-93
2022/09/03 16:58:42;;;;;;;2.88;2.78;;;;;;;;;;6327042;22;20390;-95
2022/09/03 17:06:56;;;;;;;3.42;3.33;;;;;;;;;;6278243;22;20387;-89
2022/09/03 17:09:41;;;;;;;5.03;4.35;;;;;;;;;;6261727;22;20432;-94
2022/09/03 17:12:25;;;;;;;10.68;10.00;;;;;;;;;;6291015;22;20356;-92
2022/09/03 17:15:16;;;;;;;2.80;2.80;;;;;;;;;;6268311;22;20381;-95
2022/09/03 17:18:01;;;;;;;3.50;3.10;;;;;;;;;;6289563;22;20349;-90
2022/09/03 17:21:08;;;;;;;3.50;3.30;;;;;;;;;;6264988;22;20396;-93
2022/09/03 17:23:43;;;;;;;4.80;4.38;;;;;;;;;;6283987;22;20388;-89
2022/09/03 17:26:13;;;;;;;7.00;6.30;;;;;;;;;;6257568;22;20340;-91
2022/09/03 17:28:58;;;;;;;4.70;4.40;;;;;;;;;;6258283;22;20371;-94
2022/09/03 17:31:33;;;;;;;5.03;4.72;;;;;;;;;;6255623;22;20505;-92
2022/09/03 17:34:25;;;;;;;5.97;5.63;;;;;;;;;;6256860;22;20380;-90
2022/09/03 17:42:38;;;;;;;9.37;8.60;;;;;;;;;;6236476;22;20410;-92
2022/09/03 17:45:26;;;;;;;11.43;7.97;;;;;;;;;;6264293;22;20375;-92
2022/09/03 17:48:21;;;;;;;11.43;9.32;;;;;;;;;;6283517;22;20378;-90
2022/09/03 17:51:09;;;;;;;11.02;9.93;;;;;;;;;;6289103;22;20374;-90
2022/09/03 17:53:49;;;;;;;9.00;8.40;;;;;;;;;;6316685;22;20365;-92
2022/09/03 17:56:30;;;;;;;10.77;10.05;;;;;;;;;;6291855;22;20370;-89
2022/09/03 17:59:23;;;;;;;8.60;7.90;;;;;;;;;;6305849;22;20358;-94
2022/09/03 18:02:13;;;;;;;9.23;8.32;;;;;;;;;;6264689;22;20415;-92
2022/09/03 18:04:52;;;;;;;9.05;8.35;;;;;;;;;;6261551;22;20436;-94
2022/09/03 18:07:22;;;;;;;9.70;9.00;;;;;;;;;;6289739;22;20361;-94
2022/09/03 18:10:07;;;;;;;9.38;8.57;;;;;;;;;;6282537;22;20424;-94
2022/09/03 18:12:51;;;;;;;9.77;9.00;;;;;;;;;;6309514;22;20378;-93
2022/09/03 18:15:36;;;;;;;9.93;8.93;;;;;;;;;;6284829;22;20997;-90
2022/09/03 18:18:06;;;;;;;10.20;9.30;;;;;;;;;;6288980;22;20363;-94
2022/09/03 20:12:48;;;;;;;7.90;7.50;;;;;;;;;;6161700;23;20378;-91
2022/09/03 20:15:31;;;;;;;;;;;;;;;;;;;;;
2022/09/03 20:18:26;;;;;;;7.85;7.45;;;;;;;;;;6218692;23;20402;-90
2022/09/03 20:21:10;;;;;;;7.97;7.57;;;;;;;;;;6177515;23;20378;-92
2022/09/03 20:23:55;;;;;;;7.13;6.90;;;;;;;;;;6223427;23;20351;-93
2022/09/03 20:26:47;;;;;;;8.27;7.78;;;;;;;;;;6194381;23;20367;-92
2022/09/03 20:29:48;;;;;;;7.32;6.93;;;;;;;;;;6202719;23;20352;-96
2022/09/03 20:32:34;;;;;;;8.30;7.90;;;;;;;;;;6207630;23;20400;-91
2022/09/03 20:38:49;;;;;;;7.63;7.30;;;;;;;;;;6144179;23;20400;-95
2022/09/03 20:52:23;;;;;;;;;;;;;;;;;;;;;
2022/09/03 21:33:00;;;;;;;7.03;6.67;;;;;;;;;;6241801;22;20900;31
2022/09/03 22:10:05;;;;;;;6.93;6.53;;;;;;;;;;6274300;22;20384;-92
2022/09/03 22:26:27;;;;;;;7.35;6.85;;;;;;;;;;6277782;22;20581;-95
2022/09/03 22:35:33;;;;;;;6.78;6.57;;;;;;;;;;6268360;22;20372;-96
2022/09/03 22:38:26;;;;;;;6.70;6.40;;;;;;;;;;6134267;23;20433;-96
2022/09/03 22:44:55;;;;;;;;;;;;;;;;;;;;;
2022/09/03 22:55:34;;;;;;;7.05;6.75;;;;;;;;;;6277717;22;20424;-94
2022/09/03 22:58:23;;;;;;;;;;;;;;;;;;;;;
2022/09/03 23:01:21;;;;;;;6.65;6.45;;;;;;;;;;6291364;22;20371;-94
2022/09/03 23:04:15;;;;;;;;;;;;;;;;;;;;;
2022/09/03 23:09:52;;;;;;;6.85;6.50;;;;;;;;;;6298231;22;20352;-95
2022/09/03 23:12:43;;;;;;;;;;;;;;;;;;;;;
2022/09/03 23:15:26;;;;;;;;;;;;;;;;;;;;;
2022/09/03 23:18:11;;;;;;;7.32;7.03;;;;;;;;;;6288660;22;20352;-93
2022/09/03 23:20:54;;;;;;;6.80;6.60;;;;;;;;;;6253713;22;20379;-96
2022/09/03 23:26:52;;;;;;;7.00;6.80;;;;;;;;;;6232133;22;20352;-96
2022/09/03 23:29:39;;;;;;;6.97;6.68;;;;;;;;;;6233167;22;20368;-96
2022/09/03 23:32:11;;;;;;;7.77;7.37;;;;;;;;;;6257180;22;20356;-96
2022/09/03 23:34:46;;;;;;;9.13;8.55;;;;;;;;;;6250238;22;20406;-96
2022/09/03 23:37:50;;;;;;;;;;;;;;;;;;;;;
2022/09/03 23:40:36;;;;;;;8.03;7.63;;;;;;;;;;6278086;22;20379;-96
2022/09/03 23:46:54;;;;;;;7.60;7.30;;;;;;;;;;6275875;22;20380;-95
2022/09/03 23:49:39;;;;;;;8.20;7.80;;;;;;;;;;6228008;23;20517;-95
2022/09/03 23:52:24;;;;;;;8.45;8.05;;;;;;;;;;6217863;23;20376;-95
2022/09/03 23:56:03;;;;;;;7.60;7.20;;;;;;;;;;6218070;23;20457;-95
